createdAt,value
2022-12-07T00:00:10.174Z,91.07
2022-12-07T00:03:33.162Z,91.01
2022-12-07T00:06:39.377Z,90.88
2022-12-07T00:09:42.823Z,90.70
2022-12-07T00:12:45.625Z,90.70
2022-12-07T00:15:48.399Z,90.59
2022-12-07T00:18:51.341Z,90.39
2022-12-07T00:21:54.084Z,90.30
2022-12-07T00:24:56.792Z,90.52
2022-12-07T00:27:59.600Z,90.18
2022-12-07T00:31:13.797Z,90.15
2022-12-07T00:34:20.439Z,90.16
2022-12-07T00:37:23.038Z,90.10
2022-12-07T00:40:25.830Z,90.04
2022-12-07T00:43:28.940Z,90.00
2022-12-07T00:46:31.779Z,90.09
2022-12-07T00:49:34.603Z,89.89
2022-12-07T00:52:37.417Z,89.97
2022-12-07T00:55:40.284Z,89.64
2022-12-07T00:58:43.107Z,89.42
2022-12-07T01:01:45.981Z,89.70
2022-12-07T01:04:48.887Z,89.30
2022-12-07T01:07:51.756Z,89.36
2022-12-07T01:11:06.643Z,89.42
2022-12-07T01:14:10.210Z,89.34
2022-12-07T01:17:13.056Z,89.72
2022-12-07T01:20:16.907Z,89.55
2022-12-07T01:23:19.622Z,89.38
2022-12-07T01:26:23.968Z,89.45
2022-12-07T01:29:26.833Z,89.57
2022-12-07T01:32:30.215Z,89.71
2022-12-07T01:35:35.140Z,89.68
2022-12-07T01:38:37.878Z,89.62
2022-12-07T01:41:44.420Z,89.63
2022-12-07T01:45:18.454Z,89.70
2022-12-07T01:48:27.413Z,89.82
2022-12-07T01:51:30.999Z,89.99
2022-12-07T01:54:35.435Z,89.69
2022-12-07T01:57:42.672Z,89.80
2022-12-07T02:00:45.479Z,89.76
2022-12-07T02:03:48.984Z,89.82
2022-12-07T02:06:53.128Z,89.82
2022-12-07T02:09:55.950Z,89.72
2022-12-07T02:13:14.164Z,89.70
2022-12-07T02:16:32.222Z,89.58
2022-12-07T02:20:03.870Z,89.52
2022-12-07T02:23:36.444Z,89.54
2022-12-07T02:26:39.201Z,89.45
2022-12-07T02:30:06.652Z,89.47
2022-12-07T02:33:18.669Z,89.57
2022-12-07T02:36:28.016Z,89.52
2022-12-07T02:39:39.304Z,89.14
2022-12-07T02:42:47.414Z,88.94
2022-12-07T02:45:54.609Z,89.09
2022-12-07T02:49:00.651Z,89.35
2022-12-07T02:52:04.058Z,89.32
2022-12-07T02:55:08.484Z,89.44
2022-12-07T02:58:28.728Z,89.37
2022-12-07T03:01:40.831Z,89.23
2022-12-07T03:05:18.851Z,89.14
2022-12-07T03:08:39.758Z,89.22
2022-12-07T03:11:51.402Z,89.31
2022-12-07T03:15:02.592Z,89.38
2022-12-07T03:18:06.696Z,89.33
2022-12-07T03:21:19.891Z,89.30
2022-12-07T03:24:33.805Z,89.41
2022-12-07T03:27:45.766Z,89.10
2022-12-07T03:31:11.344Z,89.50
2022-12-07T03:34:31.988Z,89.52
2022-12-07T03:37:47.133Z,89.62
2022-12-07T03:40:52.902Z,89.68
2022-12-07T03:43:56.743Z,89.90
2022-12-07T03:47:14.011Z,89.71
2022-12-07T03:50:44.877Z,89.71
2022-12-07T03:53:58.451Z,89.58
2022-12-07T03:57:03.930Z,89.71
2022-12-07T04:00:08.777Z,89.57
2022-12-07T04:03:12.678Z,89.48
2022-12-07T04:06:15.859Z,89.43
2022-12-07T04:09:19.076Z,89.41
2022-12-07T04:12:23.294Z,89.28
2022-12-07T04:15:26.018Z,89.25
2022-12-07T04:18:28.832Z,89.51
2022-12-07T04:21:31.637Z,89.69
2022-12-07T04:24:35.411Z,89.67
2022-12-07T04:27:38.162Z,89.44
2022-12-07T04:30:40.943Z,89.59
2022-12-07T04:33:43.721Z,89.50
2022-12-07T04:36:47.684Z,89.69
2022-12-07T04:39:50.550Z,89.79
2022-12-07T04:42:53.347Z,89.92
2022-12-07T04:45:56.125Z,89.82
2022-12-07T04:48:59.380Z,89.87
2022-12-07T04:52:02.479Z,89.98
2022-12-07T04:55:05.612Z,89.87
2022-12-07T04:58:08.467Z,90.26
2022-12-07T05:01:11.625Z,90.08
2022-12-07T05:04:14.609Z,89.96
2022-12-07T05:07:17.385Z,90.46
2022-12-07T05:10:20.230Z,90.00
2022-12-07T05:13:23.015Z,90.08
2022-12-07T05:16:25.895Z,90.29
2022-12-07T05:19:28.660Z,90.04
2022-12-07T05:22:31.433Z,90.06
2022-12-07T05:25:34.359Z,90.28
2022-12-07T05:28:37.199Z,90.20
2022-12-07T05:31:40.153Z,90.28
2022-12-07T05:34:43.208Z,90.35
2022-12-07T05:37:46.768Z,90.72
2022-12-07T05:40:49.543Z,90.60
2022-12-07T05:43:52.303Z,90.36
2022-12-07T05:46:55.623Z,90.47
2022-12-07T05:49:58.440Z,90.87
2022-12-07T05:53:01.440Z,90.43
2022-12-07T05:56:04.428Z,90.56
2022-12-07T05:59:26.195Z,90.38
2022-12-07T06:02:29.238Z,90.79
2022-12-07T06:05:32.587Z,90.93
2022-12-07T06:08:35.341Z,90.75
2022-12-07T06:11:56.966Z,90.71
2022-12-07T06:14:59.910Z,90.80
2022-12-07T06:18:02.877Z,90.73
2022-12-07T06:21:05.848Z,90.68
2022-12-07T06:24:10.167Z,90.58
2022-12-07T06:27:13.271Z,90.17
2022-12-07T06:30:16.178Z,90.13
2022-12-07T06:33:19.046Z,89.94
2022-12-07T06:36:27.081Z,89.93
2022-12-07T06:39:30.679Z,90.10
2022-12-07T06:42:33.431Z,90.24
2022-12-07T06:45:36.338Z,90.01
2022-12-07T06:48:41.387Z,90.20
2022-12-07T06:51:44.881Z,89.68
2022-12-07T06:54:47.660Z,89.40
2022-12-07T06:57:50.394Z,89.69
2022-12-07T07:00:53.357Z,89.77
2022-12-07T07:03:56.193Z,89.71
2022-12-07T07:07:00.355Z,89.48
2022-12-07T07:10:04.344Z,89.35
2022-12-07T07:13:07.571Z,89.42
2022-12-07T07:16:10.447Z,89.47
2022-12-07T07:19:13.681Z,89.66
2022-12-07T07:22:16.475Z,89.73
2022-12-07T07:25:19.976Z,90.04
2022-12-07T07:28:23.324Z,90.11
2022-12-07T07:31:26.287Z,89.96
2022-12-07T07:34:29.129Z,89.73
2022-12-07T07:37:31.902Z,89.88
2022-12-07T07:40:35.419Z,89.75
2022-12-07T07:43:38.176Z,89.63
2022-12-07T07:46:41.171Z,89.67
2022-12-07T07:49:47.983Z,89.65
2022-12-07T07:52:52.092Z,89.51
2022-12-07T07:55:55.744Z,89.48
2022-12-07T07:58:58.507Z,89.81
2022-12-07T08:02:01.302Z,89.70
2022-12-07T08:05:04.455Z,89.66
2022-12-07T08:08:07.387Z,89.48
2022-12-07T08:11:10.984Z,89.40
2022-12-07T08:14:13.730Z,89.17
2022-12-07T08:17:16.470Z,88.96
2022-12-07T08:20:19.372Z,89.06
2022-12-07T08:23:27.541Z,88.75
2022-12-07T08:26:35.021Z,88.39
2022-12-07T08:29:37.785Z,88.22
2022-12-07T08:32:40.742Z,88.42
2022-12-07T08:35:43.534Z,88.07
2022-12-07T08:39:07.840Z,87.98
2022-12-07T08:42:09.363Z,88.55
2022-12-07T08:45:14.188Z,88.39
2022-12-07T08:48:19.004Z,88.04
2022-12-07T08:51:23.524Z,87.97
2022-12-07T08:54:26.741Z,87.39
2022-12-07T08:57:30.588Z,87.91
2022-12-07T09:00:33.432Z,87.64
2022-12-07T09:03:36.626Z,87.49
2022-12-07T09:06:39.960Z,86.77
2022-12-07T09:09:43.062Z,87.10
2022-12-07T09:12:45.888Z,86.79
2022-12-07T09:15:48.750Z,86.71
2022-12-07T09:18:51.608Z,86.10
2022-12-07T09:21:54.377Z,86.19
2022-12-07T09:24:59.071Z,85.54
2022-12-07T09:28:02.228Z,85.68
2022-12-07T09:31:24.316Z,85.08
2022-12-07T09:34:28.241Z,84.78
2022-12-07T09:37:32.819Z,85.01
2022-12-07T09:40:35.590Z,84.54
2022-12-07T09:43:41.197Z,84.51
2022-12-07T09:46:44.874Z,84.29
2022-12-07T09:49:47.818Z,84.05
2022-12-07T09:52:51.991Z,83.81
2022-12-07T09:55:55.120Z,83.31
2022-12-07T09:59:03.888Z,82.57
2022-12-07T10:02:30.271Z,82.65
2022-12-07T10:05:43.089Z,81.73
2022-12-07T10:08:46.028Z,80.84
2022-12-07T10:12:13.980Z,81.41
2022-12-07T10:15:16.814Z,79.85
2022-12-07T10:18:29.284Z,80.17
2022-12-07T10:21:32.253Z,79.25
2022-12-07T10:24:35.093Z,79.15
2022-12-07T10:27:37.901Z,78.26
2022-12-07T10:30:52.041Z,78.94
2022-12-07T10:33:58.147Z,78.84
2022-12-07T10:37:10.148Z,78.25
2022-12-07T10:40:34.252Z,78.60
2022-12-07T10:43:37.057Z,78.37
2022-12-07T10:47:06.343Z,77.91
2022-12-07T10:50:44.678Z,78.09
2022-12-07T10:53:56.688Z,78.05
2022-12-07T10:57:28.854Z,78.20
2022-12-07T11:01:02.875Z,77.78
2022-12-07T11:04:30.675Z,78.18
2022-12-07T11:08:00.550Z,78.07
2022-12-07T11:11:14.167Z,77.93
2022-12-07T11:14:35.363Z,76.97
2022-12-07T11:17:57.520Z,75.28
2022-12-07T11:21:18.833Z,75.73
2022-12-07T11:24:32.887Z,76.45
2022-12-07T11:27:42.310Z,78.09
2022-12-07T11:31:04.104Z,78.89
2022-12-07T11:34:22.017Z,79.64
2022-12-07T11:40:48.112Z,80.17
2022-12-07T11:44:06.424Z,80.03
2022-12-07T11:47:18.381Z,79.24
2022-12-07T11:50:28.845Z,78.56
2022-12-07T11:53:40.815Z,78.30
2022-12-07T11:56:44.922Z,77.76
2022-12-07T11:59:53.766Z,77.77
2022-12-07T12:03:04.228Z,77.56
2022-12-07T12:06:08.061Z,78.06
2022-12-07T12:16:27.661Z,78.22
2022-12-07T12:19:39.072Z,78.05
2022-12-07T12:22:47.125Z,77.59
2022-12-07T12:25:59.216Z,77.70
2022-12-07T12:29:06.687Z,78.15
2022-12-07T12:32:23.411Z,78.37
2022-12-07T12:35:35.228Z,77.94
2022-12-07T12:39:11.939Z,77.34
2022-12-07T12:42:21.440Z,77.17
2022-12-07T12:45:25.825Z,76.97
2022-12-07T12:48:36.458Z,76.86
2022-12-07T12:51:42.344Z,76.51
2022-12-07T12:55:03.037Z,76.50
2022-12-07T12:58:18.621Z,76.55
2022-12-07T13:01:36.777Z,76.84
2022-12-07T13:05:02.402Z,77.07
2022-12-07T13:08:30.658Z,77.09
2022-12-07T13:11:45.394Z,77.14
2022-12-07T13:14:58.552Z,77.58
2022-12-07T13:18:04.654Z,77.38
2022-12-07T13:21:10.580Z,77.56
2022-12-07T13:24:14.687Z,77.65
2022-12-07T13:27:18.792Z,77.56
2022-12-07T13:30:23.149Z,77.75
2022-12-07T13:33:29.284Z,77.93
2022-12-07T13:36:50.477Z,77.49
2022-12-07T13:39:57.129Z,77.35
2022-12-07T13:43:05.339Z,77.04
2022-12-07T13:46:09.327Z,77.59
2022-12-07T13:49:22.403Z,77.73
2022-12-07T13:52:27.140Z,78.07
2022-12-07T13:55:30.750Z,78.29
2022-12-07T13:58:34.599Z,78.31
2022-12-07T14:01:37.454Z,78.19
2022-12-07T14:04:40.338Z,78.27
2022-12-07T14:08:06.040Z,78.30
2022-12-07T14:11:14.961Z,78.63
2022-12-07T14:14:36.510Z,78.58
2022-12-07T14:17:54.952Z,79.02
2022-12-07T14:21:10.027Z,79.06
2022-12-07T14:24:19.018Z,79.04
2022-12-07T14:27:26.613Z,79.25
2022-12-07T14:30:35.100Z,79.41
2022-12-07T14:33:39.184Z,79.59
2022-12-07T14:36:41.994Z,79.77
2022-12-07T14:39:44.778Z,79.98
2022-12-07T14:42:51.449Z,79.96
2022-12-07T14:45:54.269Z,80.11
2022-12-07T14:55:50.488Z,80.57
2022-12-07T14:58:53.417Z,80.45
2022-12-07T15:01:56.212Z,80.47
2022-12-07T15:04:59.129Z,80.31
2022-12-07T15:08:02.602Z,79.88
2022-12-07T15:11:05.588Z,79.67
2022-12-07T15:14:13.418Z,79.44
2022-12-07T15:17:26.354Z,78.69
2022-12-07T15:20:32.577Z,78.94
2022-12-07T15:23:35.459Z,78.99
2022-12-07T15:26:40.033Z,78.37
2022-12-07T15:29:42.808Z,78.18
2022-12-07T15:32:45.639Z,78.30
2022-12-07T15:35:48.531Z,78.57
2022-12-07T15:39:15.856Z,78.40
2022-12-07T15:42:15.008Z,78.67
2022-12-07T15:45:17.829Z,78.28
2022-12-07T15:48:29.152Z,78.52
2022-12-07T15:51:32.368Z,78.66
2022-12-07T15:54:35.461Z,78.99
2022-12-07T15:57:39.793Z,78.97
2022-12-07T16:00:42.530Z,79.22
2022-12-07T16:03:46.026Z,79.30
2022-12-07T16:06:48.948Z,79.28
2022-12-07T16:09:51.789Z,79.45
2022-12-07T16:12:54.561Z,79.17
2022-12-07T16:15:57.394Z,79.10
2022-12-07T16:19:00.262Z,79.31
2022-12-07T16:22:04.169Z,79.56
2022-12-07T16:25:07.228Z,79.62
2022-12-07T16:28:10.029Z,79.81
2022-12-07T16:31:16.005Z,79.93
2022-12-07T16:34:19.381Z,80.05
2022-12-07T16:37:22.141Z,79.85
2022-12-07T16:40:24.916Z,80.17
2022-12-07T16:43:27.863Z,80.50
2022-12-07T16:46:31.066Z,81.17
2022-12-07T16:49:33.879Z,80.78
2022-12-07T16:52:36.593Z,80.54
2022-12-07T16:55:40.812Z,80.66
2022-12-07T16:58:44.976Z,81.11
2022-12-07T17:01:47.981Z,81.49
2022-12-07T17:04:51.804Z,82.10
2022-12-07T17:07:55.318Z,81.76
2022-12-07T17:10:58.190Z,82.12
2022-12-07T17:14:19.757Z,82.04
2022-12-07T17:17:22.584Z,82.20
2022-12-07T17:20:27.736Z,81.79
2022-12-07T17:23:31.391Z,81.72
2022-12-07T17:26:36.042Z,81.85
2022-12-07T17:29:39.089Z,82.30
2022-12-07T17:32:41.979Z,82.37
2022-12-07T17:35:44.716Z,82.32
2022-12-07T17:38:50.853Z,82.28
2022-12-07T17:42:12.486Z,81.85
2022-12-07T17:45:15.476Z,82.23
2022-12-07T17:48:18.239Z,82.21
2022-12-07T17:51:39.801Z,82.36
2022-12-07T17:54:42.695Z,82.58
2022-12-07T17:57:45.440Z,82.69
2022-12-07T18:00:48.329Z,82.49
2022-12-07T18:03:51.183Z,82.47
2022-12-07T18:06:53.982Z,82.93
2022-12-07T18:09:57.755Z,82.67
2022-12-07T18:13:19.347Z,82.89
2022-12-07T18:16:28.063Z,83.15
2022-12-07T18:19:31.484Z,82.81
2022-12-07T18:22:34.336Z,83.00
2022-12-07T18:25:37.167Z,82.71
2022-12-07T18:28:40.722Z,82.45
2022-12-07T18:31:44.831Z,82.42
2022-12-07T18:34:47.548Z,82.35
2022-12-07T18:37:50.416Z,81.76
2022-12-07T18:40:53.265Z,81.45
2022-12-07T18:43:56.138Z,81.60
2022-12-07T18:46:59.071Z,81.59
2022-12-07T18:50:01.988Z,81.53
2022-12-07T18:53:06.039Z,81.11
2022-12-07T18:56:15.351Z,80.53
2022-12-07T18:59:37.040Z,80.10
2022-12-07T19:02:39.914Z,79.99
2022-12-07T19:05:42.777Z,79.50
2022-12-07T19:08:45.599Z,78.66
2022-12-07T19:11:51.928Z,78.48
2022-12-07T19:14:55.846Z,78.04
2022-12-07T19:17:58.587Z,77.96
2022-12-07T19:21:03.839Z,78.41
2022-12-07T19:24:07.481Z,78.37
2022-12-07T19:27:11.028Z,78.62
2022-12-07T19:30:14.009Z,78.50
2022-12-07T19:33:16.783Z,78.83
2022-12-07T19:36:19.599Z,78.96
2022-12-07T19:39:22.575Z,79.14
2022-12-07T19:42:25.320Z,79.36
2022-12-07T19:45:29.606Z,79.44
2022-12-07T19:48:32.754Z,79.41
2022-12-07T19:51:35.823Z,79.36
2022-12-07T19:54:38.824Z,79.32
2022-12-07T19:57:41.638Z,79.14
2022-12-07T20:00:44.431Z,79.22
2022-12-07T20:03:47.390Z,79.33
2022-12-07T20:06:54.015Z,79.02
2022-12-07T20:09:56.840Z,79.10
2022-12-07T20:13:18.459Z,79.19
2022-12-07T20:16:21.982Z,79.12
2022-12-07T20:19:24.768Z,78.72
2022-12-07T20:22:27.489Z,79.11
2022-12-07T20:25:30.303Z,79.53
2022-12-07T20:28:33.861Z,79.10
2022-12-07T20:31:36.690Z,79.13
2022-12-07T20:34:39.606Z,79.01
2022-12-07T20:37:42.396Z,79.22
2022-12-07T20:40:50.005Z,79.29
2022-12-07T20:43:52.770Z,79.25
2022-12-07T20:46:55.522Z,79.32
2022-12-07T20:49:58.292Z,79.28
2022-12-07T20:53:01.061Z,79.62
2022-12-07T20:56:04.036Z,79.48
2022-12-07T20:59:11.883Z,79.66
2022-12-07T21:02:14.679Z,80.08
2022-12-07T21:05:18.798Z,80.27
2022-12-07T21:08:21.644Z,80.13
2022-12-07T21:11:26.628Z,80.50
2022-12-07T21:14:29.360Z,80.05
2022-12-07T21:17:32.098Z,80.37
2022-12-07T21:20:34.896Z,80.31
2022-12-07T21:23:38.555Z,80.34
2022-12-07T21:26:41.365Z,80.42
2022-12-07T21:29:45.695Z,80.26
2022-12-07T21:32:50.526Z,80.40
2022-12-07T21:35:53.300Z,80.84
2022-12-07T21:38:57.477Z,80.97
2022-12-07T21:42:00.157Z,80.98
2022-12-07T21:45:03.240Z,81.01
2022-12-07T21:48:06.440Z,81.36
2022-12-07T21:51:12.474Z,81.42
2022-12-07T21:54:15.316Z,81.37
2022-12-07T21:57:18.094Z,81.40
2022-12-07T22:00:24.834Z,81.42
2022-12-07T22:03:27.704Z,81.25
2022-12-07T22:06:30.497Z,81.18
2022-12-07T22:09:33.398Z,81.41
2022-12-07T22:12:36.141Z,81.28
2022-12-07T22:15:40.958Z,81.41
2022-12-07T22:18:43.873Z,81.63
2022-12-07T22:21:47.260Z,81.58
2022-12-07T22:24:50.434Z,81.63
2022-12-07T22:27:53.175Z,81.45
2022-12-07T22:31:02.723Z,81.60
2022-12-07T22:34:05.540Z,80.91
2022-12-07T22:37:08.265Z,81.02
2022-12-07T22:40:12.023Z,80.82
2022-12-07T22:43:14.936Z,80.78
2022-12-07T22:46:17.966Z,79.80
2022-12-07T22:49:24.131Z,80.10
2022-12-07T22:52:31.251Z,80.01
2022-12-07T22:55:39.456Z,80.28
2022-12-07T22:58:42.419Z,80.16
2022-12-07T23:01:45.180Z,80.35
2022-12-07T23:04:47.947Z,80.30
2022-12-07T23:07:51.297Z,80.33
2022-12-07T23:10:54.182Z,80.52
2022-12-07T23:13:56.957Z,80.20
2022-12-07T23:16:59.833Z,80.46
2022-12-07T23:20:04.579Z,80.53
2022-12-07T23:23:07.382Z,80.95
2022-12-07T23:26:12.209Z,80.96
2022-12-07T23:29:17.944Z,80.47
2022-12-07T23:32:21.192Z,80.11
2022-12-07T23:35:23.944Z,80.30
2022-12-07T23:38:27.541Z,80.36
2022-12-07T23:41:31.079Z,80.49
2022-12-07T23:44:33.845Z,80.56
2022-12-07T23:47:36.648Z,80.50
2022-12-07T23:50:39.455Z,80.36
2022-12-07T23:53:44.854Z,80.14
2022-12-07T23:56:47.610Z,80.36
2022-12-07T23:59:51.912Z,80.31
